createdAt,value
2018-07-07T00:01:23.703Z,56.80
2018-07-07T00:03:50.829Z,56.34
2018-07-07T00:06:18.102Z,57.45
2018-07-07T00:08:45.306Z,57.55
2018-07-07T00:11:12.540Z,58.31
2018-07-07T00:13:39.713Z,59.25
2018-07-07T00:16:06.903Z,58.37
2018-07-07T00:18:34.089Z,59.87
2018-07-07T00:21:01.325Z,59.40
2018-07-07T00:23:28.920Z,59.83
2018-07-07T00:25:56.141Z,60.85
2018-07-07T00:28:23.396Z,60.95
2018-07-07T00:30:50.661Z,61.46
2018-07-07T00:33:17.783Z,61.60
2018-07-07T00:35:49.790Z,61.36
2018-07-07T00:38:16.915Z,62.00
2018-07-07T00:40:44.052Z,62.15
2018-07-07T00:43:11.913Z,63.15
2018-07-07T00:45:39.015Z,63.53
2018-07-07T00:48:06.170Z,63.66
2018-07-07T00:50:33.335Z,64.97
2018-07-07T00:53:00.556Z,65.41
2018-07-07T00:55:28.021Z,65.43
2018-07-07T00:57:55.206Z,65.28
2018-07-07T01:00:22.393Z,65.86
2018-07-07T01:02:49.572Z,66.73
2018-07-07T01:05:28.426Z,65.46
2018-07-07T01:07:55.581Z,66.13
2018-07-07T01:10:22.917Z,65.94
2018-07-07T01:12:50.237Z,66.32
2018-07-07T01:15:17.392Z,67.40
2018-07-07T01:17:44.537Z,67.39
2018-07-07T01:20:11.804Z,67.33
2018-07-07T01:22:38.916Z,68.46
2018-07-07T01:25:06.056Z,69.06
2018-07-07T01:27:33.905Z,69.45
2018-07-07T01:30:01.022Z,69.62
2018-07-07T01:32:28.169Z,70.27
2018-07-07T01:34:55.428Z,70.16
2018-07-07T01:37:22.571Z,71.34
2018-07-07T01:39:49.727Z,71.26
2018-07-07T01:42:16.883Z,71.31
2018-07-07T01:44:44.004Z,71.87
2018-07-07T01:47:11.121Z,72.75
2018-07-07T01:49:38.276Z,72.13
2018-07-07T01:52:05.407Z,73.43
2018-07-07T01:54:32.589Z,73.42
2018-07-07T01:56:59.739Z,74.26
2018-07-07T01:59:26.855Z,74.49
2018-07-07T02:01:54.108Z,74.07
2018-07-07T02:04:21.265Z,75.23
2018-07-07T02:06:48.535Z,75.42
2018-07-07T02:09:15.718Z,76.04
2018-07-07T02:11:42.859Z,76.69
2018-07-07T02:14:09.973Z,76.58
2018-07-07T02:16:37.106Z,77.60
2018-07-07T02:19:04.427Z,76.83
2018-07-07T02:21:31.623Z,77.68
2018-07-07T02:23:58.765Z,77.27
2018-07-07T02:26:26.036Z,77.83
2018-07-07T02:28:53.155Z,78.85
2018-07-07T02:31:20.321Z,79.14
2018-07-07T02:33:47.584Z,79.50
2018-07-07T02:36:14.721Z,79.04
2018-07-07T02:38:41.849Z,79.81
2018-07-07T02:41:09.120Z,79.81
2018-07-07T02:43:36.246Z,79.61
2018-07-07T02:46:03.405Z,79.99
2018-07-07T02:48:30.627Z,80.53
2018-07-07T02:50:57.765Z,80.60
2018-07-07T02:53:24.932Z,80.14
2018-07-07T02:55:52.144Z,80.05
2018-07-07T02:58:19.325Z,80.76
2018-07-07T03:00:46.676Z,81.00
2018-07-07T03:03:13.940Z,81.20
2018-07-07T03:05:41.085Z,80.74
2018-07-07T03:08:08.228Z,81.26
2018-07-07T03:10:35.502Z,81.35
2018-07-07T03:13:02.748Z,81.95
2018-07-07T03:15:30.000Z,81.90
2018-07-07T03:17:57.260Z,82.05
2018-07-07T03:20:24.485Z,82.17
2018-07-07T03:22:51.629Z,82.54
2018-07-07T03:25:19.674Z,81.68
2018-07-07T03:27:46.821Z,83.12
2018-07-07T03:30:13.944Z,82.08
2018-07-07T03:32:41.101Z,81.85
2018-07-07T03:35:08.852Z,81.52
2018-07-07T03:37:36.571Z,82.83
2018-07-07T03:40:03.930Z,81.60
2018-07-07T03:42:31.022Z,82.63
2018-07-07T03:44:58.183Z,82.25
2018-07-07T03:47:25.437Z,82.02
2018-07-07T03:49:52.687Z,82.68
2018-07-07T03:52:19.827Z,81.73
2018-07-07T03:54:47.081Z,80.83
2018-07-07T03:57:14.276Z,81.67
2018-07-07T03:59:41.381Z,80.91
2018-07-07T04:02:09.023Z,81.45
2018-07-07T04:04:37.925Z,81.10
2018-07-07T04:07:05.480Z,80.33
2018-07-07T04:09:32.659Z,80.38
2018-07-07T04:11:59.809Z,81.12
2018-07-07T04:14:26.974Z,79.86
2018-07-07T04:16:54.289Z,79.74
2018-07-07T04:19:21.436Z,79.76
2018-07-07T04:21:48.588Z,79.77
2018-07-07T04:24:15.860Z,80.30
2018-07-07T04:26:42.974Z,79.15
2018-07-07T04:29:10.108Z,79.39
2018-07-07T04:31:37.292Z,79.11
2018-07-07T04:34:04.633Z,79.80
2018-07-07T04:36:31.755Z,78.59
2018-07-07T04:38:58.972Z,79.15
2018-07-07T04:41:26.097Z,78.56
2018-07-07T04:43:53.227Z,78.67
2018-07-07T04:46:20.475Z,78.19
2018-07-07T04:48:47.604Z,78.78
2018-07-07T04:51:14.732Z,77.37
2018-07-07T04:53:41.969Z,77.33
2018-07-07T04:56:09.119Z,76.82
2018-07-07T04:58:36.312Z,76.75
2018-07-07T05:01:03.571Z,76.24
2018-07-07T05:03:30.671Z,75.55
2018-07-07T05:05:57.828Z,75.54
2018-07-07T05:08:25.032Z,75.92
2018-07-07T05:10:52.184Z,75.94
2018-07-07T05:13:19.298Z,75.69
2018-07-07T05:15:46.524Z,75.12
2018-07-07T05:18:13.625Z,74.84
2018-07-07T05:20:41.775Z,75.30
2018-07-07T05:23:09.054Z,74.34
2018-07-07T05:25:36.197Z,73.90
2018-07-07T05:28:03.386Z,73.28
2018-07-07T05:30:30.669Z,72.88
2018-07-07T05:32:57.836Z,73.56
2018-07-07T05:35:25.012Z,71.44
2018-07-07T05:37:52.226Z,71.38
2018-07-07T05:40:19.356Z,70.83
2018-07-07T05:42:46.489Z,72.17
2018-07-07T05:45:13.685Z,71.39
2018-07-07T05:47:40.799Z,71.34
2018-07-07T05:50:08.047Z,70.71
2018-07-07T05:52:35.364Z,70.65
2018-07-07T05:55:02.496Z,70.45
2018-07-07T05:57:29.711Z,70.61
2018-07-07T05:59:56.891Z,70.96
2018-07-07T06:02:24.064Z,69.42
2018-07-07T06:04:51.176Z,68.34
2018-07-07T06:07:18.421Z,68.09
2018-07-07T06:09:45.631Z,68.29
2018-07-07T06:12:12.777Z,69.10
2018-07-07T06:14:40.035Z,69.71
2018-07-07T06:17:07.193Z,69.37
2018-07-07T06:19:34.381Z,69.50
2018-07-07T06:22:01.552Z,68.82
2018-07-07T06:24:28.736Z,68.13
2018-07-07T06:26:55.886Z,68.75
2018-07-07T06:29:23.793Z,68.04
2018-07-07T06:31:51.024Z,67.39
2018-07-07T06:34:18.175Z,67.34
2018-07-07T06:36:45.343Z,68.16
2018-07-07T06:39:12.588Z,68.51
2018-07-07T06:41:39.705Z,69.13
2018-07-07T06:44:06.907Z,66.78
2018-07-07T06:46:34.098Z,65.88
2018-07-07T06:49:01.224Z,66.13
2018-07-07T06:51:28.373Z,66.64
2018-07-07T06:53:55.823Z,66.18
2018-07-07T06:56:22.917Z,66.04
2018-07-07T06:58:50.116Z,65.41
2018-07-07T07:01:17.325Z,65.57
2018-07-07T07:03:44.478Z,64.58
2018-07-07T07:06:11.642Z,63.59
2018-07-07T07:08:39.065Z,63.42
2018-07-07T07:11:06.358Z,62.52
2018-07-07T07:13:33.607Z,62.87
2018-07-07T07:16:01.663Z,61.11
2018-07-07T07:18:28.796Z,61.81
2018-07-07T07:20:56.009Z,60.54
2018-07-07T07:23:23.224Z,61.50
2018-07-07T07:25:50.475Z,60.83
2018-07-07T07:28:17.673Z,60.98
2018-07-07T07:30:44.786Z,59.33
2018-07-07T07:33:11.932Z,60.00
2018-07-07T07:35:39.239Z,59.41
2018-07-07T07:38:06.892Z,59.17
2018-07-07T07:40:34.078Z,59.01
2018-07-07T07:43:01.257Z,58.17
2018-07-07T07:45:28.376Z,57.92
2018-07-07T07:47:55.580Z,56.50
2018-07-07T07:50:24.144Z,54.73
2018-07-07T07:52:51.397Z,54.33
2018-07-07T07:55:18.571Z,53.88
2018-07-07T07:57:45.752Z,54.89
2018-07-07T08:00:12.997Z,54.71
2018-07-07T08:02:40.179Z,54.68
2018-07-07T08:05:07.503Z,55.56
2018-07-07T08:07:35.558Z,54.86
2018-07-07T08:10:02.684Z,55.24
2018-07-07T08:12:29.923Z,55.78
2018-07-07T08:14:57.109Z,56.61
2018-07-07T08:17:24.289Z,58.28
2018-07-07T08:19:52.315Z,56.72
2018-07-07T08:22:19.453Z,57.30
2018-07-07T08:24:46.866Z,57.41
2018-07-07T08:27:14.755Z,54.43
2018-07-07T08:29:42.024Z,52.32
2018-07-07T08:32:09.231Z,52.63
2018-07-07T08:34:36.522Z,51.38
2018-07-07T08:37:03.946Z,51.15
2018-07-07T08:39:31.154Z,50.94
2018-07-07T08:41:58.373Z,51.39
2018-07-07T08:44:25.622Z,48.79
2018-07-07T08:46:52.764Z,48.30
2018-07-07T08:49:20.398Z,48.69
2018-07-07T08:51:47.614Z,46.20
2018-07-07T08:54:14.832Z,44.11
2018-07-07T08:56:42.082Z,45.15
2018-07-07T08:59:09.279Z,43.58
2018-07-07T09:01:36.590Z,45.87
2018-07-07T09:04:03.902Z,47.86
2018-07-07T09:06:31.052Z,46.49
2018-07-07T09:08:58.268Z,46.92
2018-07-07T09:11:25.488Z,47.43
2018-07-07T09:13:52.692Z,47.04
2018-07-07T09:16:19.870Z,46.50
2018-07-07T09:18:47.090Z,44.13
2018-07-07T09:21:14.218Z,42.41
2018-07-07T09:23:41.352Z,40.48
2018-07-07T09:26:09.875Z,39.79
2018-07-07T09:28:37.054Z,39.70
2018-07-07T09:31:04.168Z,36.21
2018-07-07T09:33:31.325Z,37.35
2018-07-07T09:35:58.528Z,37.40
2018-07-07T09:38:25.733Z,36.83
2018-07-07T09:40:52.977Z,36.83
2018-07-07T09:43:20.176Z,37.86
2018-07-07T09:45:47.454Z,37.59
2018-07-07T09:48:14.633Z,37.59
2018-07-07T09:50:41.896Z,37.61
2018-07-07T09:53:09.112Z,36.35
2018-07-07T09:55:36.278Z,36.68
2018-07-07T09:58:03.383Z,36.41
2018-07-07T10:00:36.384Z,36.14
2018-07-07T10:03:03.692Z,37.54
2018-07-07T10:05:31.001Z,36.20
2018-07-07T10:07:58.149Z,36.32
2018-07-07T10:10:25.281Z,33.37
2018-07-07T10:12:52.418Z,32.57
2018-07-07T10:15:19.726Z,33.77
2018-07-07T10:17:47.017Z,32.58
2018-07-07T10:20:14.230Z,32.10
2018-07-07T10:22:41.419Z,33.76
2018-07-07T10:25:08.555Z,34.08
2018-07-07T10:27:35.802Z,32.85
2018-07-07T10:30:03.093Z,32.32
2018-07-07T10:32:30.228Z,31.80
2018-07-07T10:34:57.583Z,31.52
2018-07-07T10:37:24.820Z,30.50
2018-07-07T10:39:52.066Z,29.86
2018-07-07T10:42:19.289Z,29.48
2018-07-07T10:44:46.459Z,30.85
2018-07-07T10:47:13.590Z,28.16
2018-07-07T10:49:41.643Z,28.05
2018-07-07T10:52:09.242Z,27.85
2018-07-07T10:54:36.449Z,25.68
2018-07-07T10:57:03.688Z,28.08
2018-07-07T10:59:30.875Z,26.88
2018-07-07T11:01:58.016Z,26.69
2018-07-07T11:04:25.245Z,26.12
2018-07-07T11:06:52.540Z,25.15
2018-07-07T11:09:19.744Z,24.50
2018-07-07T11:11:46.931Z,24.34
2018-07-07T11:14:14.079Z,24.56
2018-07-07T11:16:41.279Z,22.78
2018-07-07T11:19:08.476Z,22.09
2018-07-07T11:21:35.672Z,22.84
2018-07-07T11:24:02.920Z,22.58
2018-07-07T11:26:30.049Z,22.65
2018-07-07T11:28:57.299Z,21.59
2018-07-07T11:31:24.519Z,22.58
2018-07-07T11:33:52.113Z,25.29
2018-07-07T11:36:19.337Z,21.23
2018-07-07T11:38:46.471Z,19.50
2018-07-07T11:41:17.779Z,20.23
2018-07-07T11:43:45.427Z,20.30
2018-07-07T11:46:12.604Z,20.40
2018-07-07T11:48:39.778Z,19.69
2018-07-07T11:51:06.977Z,19.78
2018-07-07T11:53:34.244Z,19.08
2018-07-07T11:56:01.439Z,18.81
2018-07-07T11:58:28.964Z,19.52
2018-07-07T12:00:56.149Z,18.51
2018-07-07T12:03:23.332Z,17.95
2018-07-07T12:05:50.691Z,18.47
2018-07-07T12:08:17.912Z,17.28
2018-07-07T12:10:45.073Z,18.27
2018-07-07T12:13:12.278Z,18.78
2018-07-07T12:15:39.482Z,20.88
2018-07-07T12:18:06.704Z,21.27
2018-07-07T12:20:33.966Z,20.30
2018-07-07T12:23:01.120Z,21.18
2018-07-07T12:25:28.291Z,21.85
2018-07-07T12:27:55.460Z,21.76
2018-07-07T12:30:23.510Z,20.76
2018-07-07T12:32:50.693Z,22.54
2018-07-07T12:35:18.243Z,21.11
2018-07-07T12:37:45.343Z,22.51
2018-07-07T12:40:12.505Z,23.48
2018-07-07T12:42:39.836Z,22.67
2018-07-07T12:45:07.064Z,23.40
2018-07-07T12:47:34.207Z,20.78
2018-07-07T12:50:01.466Z,21.97
2018-07-07T12:52:28.580Z,21.58
2018-07-07T12:54:55.798Z,22.01
2018-07-07T12:57:23.020Z,22.63
2018-07-07T12:59:50.140Z,21.47
2018-07-07T13:02:17.292Z,20.57
2018-07-07T13:04:44.497Z,21.95
2018-07-07T13:07:11.709Z,22.02
2018-07-07T13:09:38.975Z,21.43
2018-07-07T13:12:06.268Z,20.59
2018-07-07T13:14:33.535Z,20.89
2018-07-07T13:17:00.743Z,22.13
2018-07-07T13:19:28.024Z,21.79
2018-07-07T13:21:55.206Z,21.36
2018-07-07T13:24:22.373Z,21.66
2018-07-07T13:26:49.566Z,20.65
2018-07-07T13:29:16.712Z,21.04
2018-07-07T13:31:45.054Z,21.33
2018-07-07T13:34:12.595Z,22.45
2018-07-07T13:36:39.731Z,20.08
2018-07-07T13:39:07.156Z,21.95
2018-07-07T13:41:34.405Z,21.63
2018-07-07T13:44:01.627Z,21.81
2018-07-07T13:46:28.824Z,20.74
2018-07-07T13:48:56.039Z,20.91
2018-07-07T13:51:23.160Z,20.95
2018-07-07T13:53:50.273Z,21.23
2018-07-07T13:56:18.435Z,21.18
2018-07-07T13:58:45.664Z,20.92
2018-07-07T14:01:12.834Z,20.97
2018-07-07T14:03:40.062Z,21.09
2018-07-07T14:06:07.222Z,20.71
2018-07-07T14:08:34.576Z,19.91
2018-07-07T14:11:02.198Z,21.17
2018-07-07T14:13:30.389Z,21.41
2018-07-07T14:15:57.551Z,21.65
2018-07-07T14:18:24.741Z,21.00
2018-07-07T14:20:52.025Z,21.86
2018-07-07T14:23:19.222Z,21.21
2018-07-07T14:25:46.399Z,20.55
2018-07-07T14:28:13.643Z,20.59
2018-07-07T14:30:40.795Z,19.45
2018-07-07T14:33:08.530Z,19.79
2018-07-07T14:35:35.740Z,20.39
2018-07-07T14:38:02.837Z,20.40
2018-07-07T14:40:30.041Z,21.45
2018-07-07T14:42:57.247Z,22.57
2018-07-07T14:45:29.769Z,22.02
2018-07-07T14:47:58.376Z,20.22
2018-07-07T14:50:25.816Z,19.69
2018-07-07T14:52:53.320Z,20.67
2018-07-07T14:55:21.869Z,20.30
2018-07-07T14:57:49.137Z,19.82
2018-07-07T15:00:18.280Z,19.60
2018-07-07T15:02:46.811Z,19.03
2018-07-07T15:05:13.959Z,17.32
2018-07-07T15:07:41.211Z,17.69
2018-07-07T15:10:09.153Z,19.50
2018-07-07T15:12:36.413Z,19.49
2018-07-07T15:15:03.730Z,17.00
2018-07-07T15:17:30.887Z,15.18
2018-07-07T15:19:58.070Z,14.30
2018-07-07T15:22:25.356Z,13.44
2018-07-07T15:24:52.544Z,14.18
2018-07-07T15:27:19.692Z,13.86
2018-07-07T15:29:47.016Z,12.29
2018-07-07T15:32:14.148Z,12.95
2018-07-07T15:34:41.441Z,11.36
2018-07-07T15:37:08.659Z,12.40
2018-07-07T15:39:35.832Z,12.42
2018-07-07T15:42:03.064Z,12.35
2018-07-07T15:44:30.334Z,13.08
2018-07-07T15:46:58.307Z,12.67
2018-07-07T15:49:25.565Z,11.90
2018-07-07T15:51:52.745Z,11.46
2018-07-07T15:54:19.991Z,11.31
2018-07-07T15:56:47.107Z,11.96
2018-07-07T15:59:14.339Z,11.80
2018-07-07T16:01:41.560Z,13.12
2018-07-07T16:04:08.676Z,13.11
2018-07-07T16:06:36.750Z,13.62
2018-07-07T16:09:05.341Z,14.53
2018-07-07T16:11:32.624Z,15.81
2018-07-07T16:13:59.832Z,15.67
2018-07-07T16:16:26.969Z,15.39
2018-07-07T16:18:54.088Z,16.01
2018-07-07T16:21:21.485Z,15.99
2018-07-07T16:23:48.932Z,16.59
2018-07-07T16:26:16.405Z,15.98
2018-07-07T16:28:43.596Z,15.32
2018-07-07T16:31:10.714Z,15.48
2018-07-07T16:33:37.956Z,14.96
2018-07-07T16:36:05.225Z,14.71
2018-07-07T16:38:32.462Z,15.95
2018-07-07T16:40:59.761Z,15.93
2018-07-07T16:43:27.397Z,16.21
2018-07-07T16:45:54.644Z,15.01
2018-07-07T16:48:21.996Z,15.42
2018-07-07T16:50:49.463Z,16.97
2018-07-07T16:53:16.700Z,17.67
2018-07-07T16:55:45.484Z,17.33
2018-07-07T16:58:13.319Z,17.80
2018-07-07T17:00:40.568Z,18.77
2018-07-07T17:03:07.816Z,19.79
2018-07-07T17:05:35.125Z,20.53
2018-07-07T17:08:02.732Z,22.38
2018-07-07T17:10:29.902Z,23.36
2018-07-07T17:12:57.544Z,24.34
2018-07-07T17:15:24.753Z,24.56
2018-07-07T17:17:51.907Z,26.28
2018-07-07T17:20:19.114Z,27.15
2018-07-07T17:22:47.248Z,27.52
2018-07-07T17:25:14.568Z,27.99
2018-07-07T17:27:42.556Z,28.73
2018-07-07T17:30:09.783Z,27.97
2018-07-07T17:32:37.050Z,28.08
2018-07-07T17:35:04.271Z,28.11
2018-07-07T17:37:31.493Z,28.54
2018-07-07T17:39:58.732Z,29.06
2018-07-07T17:42:26.591Z,28.84
2018-07-07T17:44:53.785Z,29.62
2018-07-07T17:47:21.083Z,29.70
2018-07-07T17:49:48.411Z,30.54
2018-07-07T17:52:15.670Z,30.87
2018-07-07T17:54:42.970Z,30.37
2018-07-07T17:57:10.150Z,31.37
2018-07-07T17:59:37.880Z,31.56
2018-07-07T18:02:05.263Z,31.94
2018-07-07T18:04:32.541Z,32.89
2018-07-07T18:06:59.673Z,32.86
2018-07-07T18:09:26.837Z,33.20
2018-07-07T18:11:54.133Z,33.99
2018-07-07T18:14:22.072Z,34.04
2018-07-07T18:16:49.296Z,33.88
2018-07-07T18:19:16.503Z,34.59
2018-07-07T18:21:43.605Z,34.93
2018-07-07T18:24:10.786Z,35.60
2018-07-07T18:26:38.084Z,35.88
2018-07-07T18:29:05.303Z,35.49
2018-07-07T18:31:32.504Z,35.92
2018-07-07T18:33:59.670Z,36.42
2018-07-07T18:36:26.865Z,36.24
2018-07-07T18:38:54.107Z,36.51
2018-07-07T18:41:21.351Z,36.43
2018-07-07T18:43:48.498Z,36.90
2018-07-07T18:46:15.619Z,36.37
2018-07-07T18:48:42.812Z,37.44
2018-07-07T18:51:10.009Z,37.17
2018-07-07T18:53:37.443Z,37.61
2018-07-07T18:56:04.947Z,38.00
2018-07-07T18:58:32.146Z,38.85
2018-07-07T19:00:59.300Z,38.87
2018-07-07T19:03:26.572Z,38.55
2018-07-07T19:05:53.757Z,39.01
2018-07-07T19:08:20.900Z,39.69
2018-07-07T19:10:48.508Z,39.39
2018-07-07T19:13:15.619Z,40.10
2018-07-07T19:15:46.788Z,40.04
2018-07-07T19:18:15.237Z,40.35
2018-07-07T19:20:48.297Z,40.91
2018-07-07T19:23:21.101Z,41.31
2018-07-07T19:25:54.986Z,41.45
2018-07-07T19:28:22.224Z,41.65
2018-07-07T19:30:49.375Z,42.43
2018-07-07T19:33:22.209Z,42.22
2018-07-07T19:35:55.228Z,42.83
2018-07-07T19:38:22.434Z,43.46
2018-07-07T19:40:49.675Z,43.62
2018-07-07T19:43:16.885Z,44.26
2018-07-07T19:45:44.467Z,44.25
2018-07-07T19:48:11.790Z,44.81
2018-07-07T19:50:39.092Z,44.87
2018-07-07T19:53:06.299Z,45.54
2018-07-07T19:55:33.453Z,45.29
2018-07-07T19:58:00.601Z,45.81
2018-07-07T20:00:27.937Z,45.70
2018-07-07T20:02:55.128Z,46.37
2018-07-07T20:05:22.284Z,46.74
2018-07-07T20:07:49.563Z,46.21
2018-07-07T20:10:16.670Z,46.61
2018-07-07T20:12:43.876Z,47.05
2018-07-07T20:15:11.485Z,46.93
2018-07-07T20:18:05.211Z,47.23
2018-07-07T20:20:38.255Z,47.85
2018-07-07T20:23:13.305Z,48.33
2018-07-07T20:25:40.639Z,48.59
2018-07-07T20:28:14.215Z,48.62
2018-07-07T20:30:41.423Z,48.96
2018-07-07T20:33:08.747Z,49.40
2018-07-07T20:35:41.468Z,49.46
2018-07-07T20:38:08.808Z,49.26
2018-07-07T20:40:36.065Z,49.58
2018-07-07T20:43:03.278Z,50.33
2018-07-07T20:45:30.999Z,50.71
2018-07-07T20:47:58.227Z,50.77
2018-07-07T20:50:25.825Z,50.65
2018-07-07T20:52:52.987Z,50.35
2018-07-07T20:55:20.409Z,50.66
2018-07-07T20:57:47.718Z,51.06
2018-07-07T21:00:15.332Z,51.28
2018-07-07T21:02:42.452Z,51.69
2018-07-07T21:05:09.670Z,52.22
2018-07-07T21:07:36.817Z,52.22
2018-07-07T21:10:04.053Z,52.33
2018-07-07T21:12:31.433Z,52.17
2018-07-07T21:14:58.661Z,52.87
2018-07-07T21:17:25.827Z,52.88
2018-07-07T21:19:53.508Z,52.83
2018-07-07T21:22:20.716Z,53.10
2018-07-07T21:24:47.993Z,53.17
2018-07-07T21:27:15.184Z,54.46
2018-07-07T21:29:42.380Z,54.14
2018-07-07T21:32:09.595Z,54.70
2018-07-07T21:34:36.943Z,54.38
2018-07-07T21:37:04.194Z,54.55
2018-07-07T21:39:31.345Z,54.98
2018-07-07T21:41:58.527Z,55.22
2018-07-07T21:44:25.641Z,55.10
2018-07-07T21:46:52.904Z,55.86
2018-07-07T21:49:20.572Z,55.43
2018-07-07T21:51:47.701Z,55.80
2018-07-07T21:54:14.852Z,56.29
2018-07-07T21:56:42.076Z,56.98
2018-07-07T21:59:15.784Z,56.84
2018-07-07T22:01:55.990Z,56.98
2018-07-07T22:04:29.558Z,57.58
2018-07-07T22:07:02.726Z,57.95
2018-07-07T22:09:31.036Z,57.38
2018-07-07T22:11:58.712Z,58.12
2018-07-07T22:14:25.889Z,58.01
2018-07-07T22:16:53.343Z,58.48
2018-07-07T22:19:20.539Z,58.61
2018-07-07T22:21:57.139Z,58.69
2018-07-07T22:24:24.310Z,58.75
2018-07-07T22:26:53.936Z,59.12
2018-07-07T22:29:21.113Z,59.49
2018-07-07T22:31:48.364Z,59.66
2018-07-07T22:34:15.473Z,59.62
2018-07-07T22:36:42.716Z,60.08
2018-07-07T22:39:09.940Z,60.06
2018-07-07T22:41:51.022Z,60.42
2018-07-07T22:44:18.456Z,60.01
2018-07-07T22:46:45.601Z,59.64
2018-07-07T22:49:12.788Z,60.76
2018-07-07T22:51:42.322Z,60.35
2018-07-07T22:54:09.534Z,60.56
2018-07-07T22:56:36.871Z,60.27
2018-07-07T22:59:04.058Z,60.92
2018-07-07T23:01:31.231Z,61.28
2018-07-07T23:03:58.498Z,61.63
2018-07-07T23:06:25.620Z,61.21
2018-07-07T23:08:52.832Z,61.57
2018-07-07T23:11:20.065Z,61.64
2018-07-07T23:13:47.223Z,62.12
2018-07-07T23:16:14.414Z,62.63
2018-07-07T23:18:41.599Z,62.66
2018-07-07T23:21:08.834Z,62.77
2018-07-07T23:23:36.020Z,62.98
2018-07-07T23:26:03.845Z,63.34
2018-07-07T23:28:31.063Z,63.53
2018-07-07T23:30:58.247Z,63.70
2018-07-07T23:33:25.620Z,63.75
2018-07-07T23:35:52.810Z,63.50
2018-07-07T23:38:19.930Z,64.00
2018-07-07T23:40:47.116Z,63.67
2018-07-07T23:43:14.247Z,63.89
2018-07-07T23:45:41.511Z,63.87
2018-07-07T23:48:08.756Z,63.63
2018-07-07T23:50:35.905Z,63.56
2018-07-07T23:53:03.019Z,64.16
2018-07-07T23:55:30.195Z,64.24
2018-07-07T23:57:57.438Z,64.46
